createdAt,value
2018-03-16T00:00:09.395Z,96515.25
2018-03-16T00:00:41.017Z,96512.78
2018-03-16T00:01:12.697Z,96516.97
2018-03-16T00:01:44.366Z,96518.63
2018-03-16T00:02:15.990Z,96516.97
2018-03-16T00:02:47.614Z,96516.63
2018-03-16T00:03:19.242Z,96519.20
2018-03-16T00:03:50.870Z,96512.59
2018-03-16T00:04:22.494Z,96518.02
2018-03-16T00:04:54.122Z,96518.05
2018-03-16T00:05:25.750Z,96511.73
2018-03-16T00:05:57.373Z,96513.00
2018-03-16T00:06:28.998Z,96515.06
2018-03-16T00:07:00.666Z,96521.02
2018-03-16T00:07:32.302Z,96518.05
2018-03-16T00:08:03.931Z,96512.27
2018-03-16T00:08:35.555Z,96519.40
2018-03-16T00:09:07.181Z,96519.40
2018-03-16T00:09:38.806Z,96515.55
2018-03-16T00:10:10.435Z,96517.66
2018-03-16T00:10:42.066Z,96513.78
2018-03-16T00:11:13.691Z,96518.86
2018-03-16T00:11:45.314Z,96514.22
2018-03-16T00:12:16.991Z,96516.39
2018-03-16T00:12:48.615Z,96512.59
2018-03-16T00:13:20.238Z,96518.52
2018-03-16T00:13:51.862Z,96514.72
2018-03-16T00:14:23.486Z,96517.73
2018-03-16T00:14:55.118Z,96517.31
2018-03-16T00:15:26.742Z,96512.71
2018-03-16T00:15:58.370Z,96520.25
2018-03-16T00:16:29.989Z,96520.28
2018-03-16T00:17:01.618Z,96517.16
2018-03-16T00:17:33.274Z,96525.63
2018-03-16T00:18:04.906Z,96523.88
2018-03-16T00:18:36.530Z,96517.58
2018-03-16T00:19:08.185Z,96518.84
2018-03-16T00:19:39.809Z,96521.30
2018-03-16T00:20:11.429Z,96517.04
2018-03-16T00:20:43.053Z,96519.15
2018-03-16T00:21:14.687Z,96515.38
2018-03-16T00:21:46.309Z,96516.65
2018-03-16T00:22:17.937Z,96517.48
2018-03-16T00:22:49.607Z,96514.49
2018-03-16T00:23:21.234Z,96517.90
2018-03-16T00:23:52.863Z,96514.49
2018-03-16T00:24:24.511Z,96513.12
2018-03-16T00:24:56.138Z,96521.60
2018-03-16T00:25:27.757Z,96508.42
2018-03-16T00:25:59.381Z,96518.53
2018-03-16T00:26:31.038Z,96518.09
2018-03-16T00:27:02.662Z,96517.59
2018-03-16T00:27:34.291Z,96512.43
2018-03-16T00:28:05.918Z,96512.80
2018-03-16T00:28:37.543Z,96510.69
2018-03-16T00:29:09.182Z,96509.36
2018-03-16T00:29:40.812Z,96505.95
2018-03-16T00:30:12.442Z,96506.69
2018-03-16T00:30:44.089Z,96511.69
2018-03-16T00:31:15.718Z,96508.64
2018-03-16T00:31:47.400Z,96503.95
2018-03-16T00:32:19.026Z,96504.33
2018-03-16T00:32:50.654Z,96502.24
2018-03-16T00:33:22.278Z,96508.64
2018-03-16T00:33:53.910Z,96508.30
2018-03-16T00:34:25.535Z,96501.91
2018-03-16T00:34:57.166Z,96504.38
2018-03-16T00:35:28.793Z,96498.84
2018-03-16T00:36:00.422Z,96498.27
2018-03-16T00:36:32.051Z,96495.59
2018-03-16T00:37:03.714Z,96501.79
2018-03-16T00:37:35.337Z,96504.00
2018-03-16T00:38:06.965Z,96502.67
2018-03-16T00:38:38.590Z,96502.67
2018-03-16T00:39:10.266Z,96502.65
2018-03-16T00:39:41.894Z,96502.18
2018-03-16T00:40:13.562Z,96503.37
2018-03-16T00:40:45.190Z,96499.99
2018-03-16T00:41:16.817Z,96495.00
2018-03-16T00:41:48.441Z,96499.55
2018-03-16T00:42:20.065Z,96495.75
2018-03-16T00:42:51.747Z,96502.08
2018-03-16T00:43:23.378Z,96500.44
2018-03-16T00:43:55.006Z,96496.80
2018-03-16T00:44:26.645Z,96501.81
2018-03-16T00:44:58.292Z,96495.08
2018-03-16T00:45:29.938Z,96490.83
2018-03-16T00:46:01.565Z,96491.61
2018-03-16T00:46:33.210Z,96496.80
2018-03-16T00:47:04.842Z,96491.69
2018-03-16T00:47:36.465Z,96495.95
2018-03-16T00:48:08.137Z,96495.50
2018-03-16T00:48:39.764Z,96496.80
2018-03-16T00:49:11.386Z,96490.08
2018-03-16T00:49:43.022Z,96488.80
2018-03-16T00:50:14.650Z,96492.10
2018-03-16T00:50:46.294Z,96487.79
2018-03-16T00:51:18.829Z,96487.37
2018-03-16T00:51:50.454Z,96487.84
2018-03-16T00:52:22.078Z,96491.61
2018-03-16T00:52:53.710Z,96488.30
2018-03-16T00:53:25.420Z,96485.73
2018-03-16T00:53:57.038Z,96494.75
2018-03-16T00:54:28.662Z,96494.31
2018-03-16T00:55:00.290Z,96486.69
2018-03-16T00:55:31.919Z,96488.80
2018-03-16T00:56:03.542Z,96494.00
2018-03-16T00:56:35.171Z,96488.48
2018-03-16T00:57:06.794Z,96493.09
2018-03-16T00:57:38.423Z,96490.23
2018-03-16T00:58:10.046Z,96488.97
2018-03-16T00:58:41.707Z,96494.97
2018-03-16T00:59:13.333Z,96493.71
2018-03-16T00:59:44.966Z,96491.27
2018-03-16T01:00:16.590Z,96490.45
2018-03-16T01:00:48.218Z,96492.12
2018-03-16T01:01:19.841Z,96491.39
2018-03-16T01:01:51.479Z,96490.95
2018-03-16T01:02:23.106Z,96493.09
2018-03-16T01:02:54.774Z,96484.66
2018-03-16T01:03:26.402Z,96487.72
2018-03-16T01:03:58.078Z,96484.39
2018-03-16T01:04:29.701Z,96485.59
2018-03-16T01:05:01.335Z,96485.19
2018-03-16T01:05:32.958Z,96484.31
2018-03-16T01:06:04.583Z,96486.11
2018-03-16T01:06:36.205Z,96486.55
2018-03-16T01:07:07.838Z,96483.16
2018-03-16T01:07:39.462Z,96482.41
2018-03-16T01:08:11.090Z,96485.84
2018-03-16T01:08:42.715Z,96485.48
2018-03-16T01:09:14.342Z,96482.07
2018-03-16T01:09:45.966Z,96481.27
2018-03-16T01:10:17.595Z,96483.37
2018-03-16T01:10:49.227Z,96479.56
2018-03-16T01:11:20.850Z,96485.16
2018-03-16T01:11:52.474Z,96479.59
2018-03-16T01:12:24.096Z,96475.77
2018-03-16T01:12:55.731Z,96477.95
2018-03-16T01:13:27.359Z,96481.78
2018-03-16T01:13:59.035Z,96472.86
2018-03-16T01:14:30.694Z,96474.59
2018-03-16T01:15:02.327Z,96467.13
2018-03-16T01:15:33.950Z,96479.45
2018-03-16T01:16:05.574Z,96478.59
2018-03-16T01:16:37.201Z,96470.56
2018-03-16T01:17:08.827Z,96466.30
2018-03-16T01:17:40.450Z,96472.72
2018-03-16T01:18:12.095Z,96468.09
2018-03-16T01:18:43.723Z,96476.64
2018-03-16T01:19:15.355Z,96468.53
2018-03-16T01:19:46.982Z,96473.67
2018-03-16T01:20:18.606Z,96469.93
2018-03-16T01:20:50.238Z,96467.36
2018-03-16T01:21:21.871Z,96468.22
2018-03-16T01:21:53.500Z,96466.55
2018-03-16T01:22:25.126Z,96473.86
2018-03-16T01:22:56.750Z,96470.58
2018-03-16T01:23:28.410Z,96469.66
2018-03-16T01:24:00.037Z,96464.72
2018-03-16T01:24:31.671Z,96472.27
2018-03-16T01:25:03.308Z,96471.41
2018-03-16T01:25:34.933Z,96468.86
2018-03-16T01:26:06.553Z,96470.08
2018-03-16T01:26:38.182Z,96466.73
2018-03-16T01:27:09.822Z,96450.52
2018-03-16T01:27:41.454Z,96466.21
2018-03-16T01:28:13.118Z,96466.23
2018-03-16T01:28:44.746Z,96465.77
2018-03-16T01:29:16.373Z,96464.50
2018-03-16T01:29:47.993Z,96464.00
2018-03-16T01:30:19.659Z,96462.31
2018-03-16T01:30:51.282Z,96461.87
2018-03-16T01:31:22.906Z,96467.80
2018-03-16T01:31:54.535Z,96465.30
2018-03-16T01:32:26.163Z,96456.36
2018-03-16T01:32:57.786Z,96462.75
2018-03-16T01:33:29.442Z,96460.20
2018-03-16T01:34:01.074Z,96456.90
2018-03-16T01:34:32.706Z,96458.48
2018-03-16T01:35:04.329Z,96458.44
2018-03-16T01:35:35.954Z,96454.66
2018-03-16T01:36:07.582Z,96456.65
2018-03-16T01:36:39.205Z,96459.61
2018-03-16T01:37:11.846Z,96455.77
2018-03-16T01:37:43.470Z,96459.53
2018-03-16T01:38:15.095Z,96459.17
2018-03-16T01:38:46.722Z,96459.53
2018-03-16T01:39:18.345Z,96459.53
2018-03-16T01:39:49.969Z,96454.41
2018-03-16T01:40:21.650Z,96450.98
2018-03-16T01:40:53.280Z,96460.77
2018-03-16T01:41:24.910Z,96448.75
2018-03-16T01:41:56.534Z,96457.20
2018-03-16T01:42:28.162Z,96456.31
2018-03-16T01:42:59.786Z,96458.77
2018-03-16T01:43:31.407Z,96456.58
2018-03-16T01:44:03.082Z,96455.80
2018-03-16T01:44:34.709Z,96457.47
2018-03-16T01:45:06.339Z,96461.27
2018-03-16T01:45:38.007Z,96457.70
2018-03-16T01:46:09.622Z,96455.00
2018-03-16T01:46:41.250Z,96454.97
2018-03-16T01:47:12.879Z,96458.30
2018-03-16T01:47:44.510Z,96455.27
2018-03-16T01:48:16.138Z,96454.06
2018-03-16T01:48:47.818Z,96462.52
2018-03-16T01:49:19.446Z,96453.27
2018-03-16T01:49:51.071Z,96449.91
2018-03-16T01:50:22.706Z,96458.28
2018-03-16T01:50:54.330Z,96457.73
2018-03-16T01:51:25.958Z,96465.72
2018-03-16T01:51:57.582Z,96458.80
2018-03-16T01:52:29.206Z,96451.98
2018-03-16T01:53:00.838Z,96465.02
2018-03-16T01:53:32.470Z,96457.84
2018-03-16T01:54:04.154Z,96462.94
2018-03-16T01:54:35.777Z,96453.23
2018-03-16T01:55:07.406Z,96456.09
2018-03-16T01:55:39.030Z,96457.42
2018-03-16T01:56:10.655Z,96454.64
2018-03-16T01:56:42.326Z,96459.33
2018-03-16T01:57:13.950Z,96464.73
2018-03-16T01:57:45.626Z,96460.91
2018-03-16T01:58:17.249Z,96458.73
2018-03-16T01:58:48.875Z,96460.62
2018-03-16T01:59:20.507Z,96459.33
2018-03-16T01:59:52.138Z,96454.17
2018-03-16T02:00:23.766Z,96459.22
2018-03-16T02:00:55.395Z,96457.89
2018-03-16T02:01:27.019Z,96455.75
2018-03-16T02:01:58.646Z,96455.81
2018-03-16T02:02:30.270Z,96454.45
2018-03-16T02:03:01.942Z,96455.81
2018-03-16T02:03:33.566Z,96455.34
2018-03-16T02:04:05.234Z,96455.39
2018-03-16T02:04:36.861Z,96461.41
2018-03-16T02:05:08.486Z,96456.25
2018-03-16T02:05:40.113Z,96455.39
2018-03-16T02:06:11.741Z,96452.03
2018-03-16T02:06:43.362Z,96460.96
2018-03-16T02:07:14.990Z,96454.25
2018-03-16T02:07:46.614Z,96456.39
2018-03-16T02:08:18.281Z,96448.47
2018-03-16T02:08:49.907Z,96451.13
2018-03-16T02:09:21.537Z,96454.95
2018-03-16T02:09:53.162Z,96455.88
2018-03-16T02:10:24.794Z,96452.91
2018-03-16T02:10:56.418Z,96449.62
2018-03-16T02:11:28.051Z,96444.10
2018-03-16T02:11:59.678Z,96452.19
2018-03-16T02:12:31.302Z,96446.65
2018-03-16T02:13:02.927Z,96447.48
2018-03-16T02:13:34.559Z,96447.44
2018-03-16T02:14:06.190Z,96452.15
2018-03-16T02:14:37.823Z,96453.37
2018-03-16T02:15:09.450Z,96449.70
2018-03-16T02:15:41.073Z,96452.66
2018-03-16T02:16:12.698Z,96450.69
2018-03-16T02:16:44.379Z,96450.27
2018-03-16T02:17:16.006Z,96447.20
2018-03-16T02:17:47.633Z,96449.41
2018-03-16T02:18:19.258Z,96447.30
2018-03-16T02:18:50.882Z,96449.87
2018-03-16T02:19:22.518Z,96446.66
2018-03-16T02:19:54.150Z,96453.49
2018-03-16T02:20:25.777Z,96446.28
2018-03-16T02:20:57.398Z,96446.18
2018-03-16T02:21:29.026Z,96444.86
2018-03-16T02:22:00.698Z,96454.92
2018-03-16T02:22:32.342Z,96449.93
2018-03-16T02:23:03.974Z,96446.98
2018-03-16T02:23:35.598Z,96450.50
2018-03-16T02:24:07.222Z,96443.30
2018-03-16T02:24:38.854Z,96450.53
2018-03-16T02:25:10.477Z,96439.91
2018-03-16T02:25:42.109Z,96443.86
2018-03-16T02:26:13.774Z,96443.81
2018-03-16T02:26:45.403Z,96444.78
2018-03-16T02:27:17.026Z,96443.53
2018-03-16T02:27:48.654Z,96447.35
2018-03-16T02:28:20.283Z,96447.80
2018-03-16T02:28:51.906Z,96448.23
2018-03-16T02:29:23.535Z,96449.56
2018-03-16T02:29:55.163Z,96444.48
2018-03-16T02:30:26.802Z,96446.59
2018-03-16T02:30:58.430Z,96439.42
2018-03-16T02:31:30.104Z,96447.12
2018-03-16T02:32:01.727Z,96444.59
2018-03-16T02:32:33.351Z,96449.25
2018-03-16T02:33:04.981Z,96440.82
2018-03-16T02:33:36.611Z,96448.47
2018-03-16T02:34:08.242Z,96447.66
2018-03-16T02:34:39.875Z,96447.79
2018-03-16T02:35:11.502Z,96446.46
2018-03-16T02:35:43.140Z,96449.11
2018-03-16T02:36:14.814Z,96453.38
2018-03-16T02:36:46.443Z,96446.12
2018-03-16T02:37:18.138Z,96447.81
2018-03-16T02:37:49.772Z,96441.57
2018-03-16T02:38:21.448Z,96442.09
2018-03-16T02:38:53.088Z,96450.59
2018-03-16T02:39:24.721Z,96445.19
2018-03-16T02:39:56.346Z,96443.95
2018-03-16T02:40:28.030Z,96447.39
2018-03-16T02:40:59.655Z,96445.72
2018-03-16T02:41:31.294Z,96444.87
2018-03-16T02:42:02.930Z,96445.72
2018-03-16T02:42:34.564Z,96448.30
2018-03-16T02:43:06.195Z,96448.38
2018-03-16T02:43:37.822Z,96447.23
2018-03-16T02:44:09.447Z,96452.66
2018-03-16T02:44:41.073Z,96453.59
2018-03-16T02:45:12.699Z,96451.05
2018-03-16T02:45:44.366Z,96451.98
2018-03-16T02:46:16.000Z,96447.33
2018-03-16T02:46:47.621Z,96455.44
2018-03-16T02:47:19.256Z,96451.66
2018-03-16T02:47:50.886Z,96449.12
2018-03-16T02:48:22.519Z,96445.30
2018-03-16T02:48:54.142Z,96450.41
2018-03-16T02:49:25.765Z,96448.73
2018-03-16T02:49:57.387Z,96456.03
2018-03-16T02:50:29.058Z,96451.79
2018-03-16T02:51:00.686Z,96445.45
2018-03-16T02:51:32.310Z,96449.70
2018-03-16T02:52:03.938Z,96451.39
2018-03-16T02:52:35.575Z,96457.79
2018-03-16T02:53:07.199Z,96448.95
2018-03-16T02:53:38.821Z,96450.20
2018-03-16T02:54:10.451Z,96450.59
2018-03-16T02:54:42.074Z,96441.31
2018-03-16T02:55:13.724Z,96446.70
2018-03-16T02:55:45.393Z,96453.94
2018-03-16T02:56:17.018Z,96453.61
2018-03-16T02:56:48.646Z,96448.63
2018-03-16T02:57:20.273Z,96455.42
2018-03-16T02:57:51.930Z,96443.98
2018-03-16T02:58:23.558Z,96443.88
2018-03-16T02:58:55.185Z,96448.53
2018-03-16T02:59:26.815Z,96446.74
2018-03-16T02:59:58.445Z,96450.41
2018-03-16T03:00:30.075Z,96447.33
2018-03-16T03:01:01.698Z,96446.41
2018-03-16T03:01:33.354Z,96443.84
2018-03-16T03:02:04.982Z,96448.00
2018-03-16T03:02:36.646Z,96441.98
2018-03-16T03:03:08.318Z,96449.88
2018-03-16T03:03:39.947Z,96445.28
2018-03-16T03:04:11.584Z,96442.22
2018-03-16T03:04:43.213Z,96443.88
2018-03-16T03:05:14.834Z,96441.80
2018-03-16T03:05:46.458Z,96444.30
2018-03-16T03:06:18.091Z,96445.03
2018-03-16T03:06:49.728Z,96439.00
2018-03-16T03:07:21.378Z,96447.50
2018-03-16T03:07:53.042Z,96439.02
2018-03-16T03:08:24.712Z,96443.58
2018-03-16T03:08:56.333Z,96445.97
2018-03-16T03:09:27.962Z,96447.02
2018-03-16T03:09:59.586Z,96439.47
2018-03-16T03:10:31.210Z,96444.57
2018-03-16T03:11:02.833Z,96444.80
2018-03-16T03:11:34.462Z,96443.42
2018-03-16T03:12:06.086Z,96453.03
2018-03-16T03:12:37.718Z,96448.66
2018-03-16T03:13:09.391Z,96448.50
2018-03-16T03:13:41.023Z,96449.28
2018-03-16T03:14:12.646Z,96450.30
2018-03-16T03:14:44.286Z,96443.25
2018-03-16T03:15:15.910Z,96454.59
2018-03-16T03:15:47.533Z,96449.60
2018-03-16T03:16:19.197Z,96449.20
2018-03-16T03:16:50.832Z,96446.34
2018-03-16T03:17:22.453Z,96450.81
2018-03-16T03:17:54.080Z,96449.20
2018-03-16T03:18:25.750Z,96447.39
2018-03-16T03:18:57.426Z,96448.58
2018-03-16T03:19:29.056Z,96450.80
2018-03-16T03:20:00.681Z,96448.11
2018-03-16T03:20:32.301Z,96449.86
2018-03-16T03:21:03.921Z,96455.38
2018-03-16T03:21:35.551Z,96449.13
2018-03-16T03:22:07.175Z,96454.05
2018-03-16T03:22:38.798Z,96452.05
2018-03-16T03:23:10.427Z,96456.93
2018-03-16T03:23:42.057Z,96454.53
2018-03-16T03:24:13.730Z,96451.67
2018-03-16T03:24:45.373Z,96453.83
2018-03-16T03:25:17.005Z,96457.27
2018-03-16T03:25:48.633Z,96459.41
2018-03-16T03:26:20.258Z,96455.75
2018-03-16T03:26:51.886Z,96444.26
2018-03-16T03:27:23.510Z,96450.84
2018-03-16T03:27:55.138Z,96455.98
2018-03-16T03:28:26.807Z,96455.16
2018-03-16T03:28:58.437Z,96457.47
2018-03-16T03:29:30.061Z,96451.64
2018-03-16T03:30:01.682Z,96454.08
2018-03-16T03:30:33.306Z,96452.83
2018-03-16T03:31:04.930Z,96455.33
2018-03-16T03:31:36.560Z,96452.39
2018-03-16T03:32:08.235Z,96451.98
2018-03-16T03:32:39.894Z,96451.66
2018-03-16T03:33:11.518Z,96453.35
2018-03-16T03:33:43.142Z,96450.80
2018-03-16T03:34:14.773Z,96449.66
2018-03-16T03:34:46.397Z,96448.80
2018-03-16T03:35:18.022Z,96453.43
2018-03-16T03:35:49.651Z,96453.48
2018-03-16T03:36:21.281Z,96453.77
2018-03-16T03:36:52.905Z,96455.06
2018-03-16T03:37:24.562Z,96450.80
2018-03-16T03:37:56.186Z,96450.91
2018-03-16T03:38:27.818Z,96455.92
2018-03-16T03:38:59.450Z,96454.70
2018-03-16T03:39:31.082Z,96456.44
2018-03-16T03:40:02.745Z,96455.56
2018-03-16T03:40:34.374Z,96456.31
2018-03-16T03:41:06.009Z,96453.09
2018-03-16T03:41:37.630Z,96456.59
2018-03-16T03:42:09.254Z,96457.52
2018-03-16T03:42:41.005Z,96454.43
2018-03-16T03:43:12.635Z,96450.66
2018-03-16T03:43:44.262Z,96455.89
2018-03-16T03:44:15.886Z,96453.80
2018-03-16T03:44:47.558Z,96450.94
2018-03-16T03:45:19.190Z,96445.09
2018-03-16T03:45:50.814Z,96450.30
2018-03-16T03:46:22.442Z,96452.53
2018-03-16T03:46:54.126Z,96454.77
2018-03-16T03:47:25.753Z,96448.94
2018-03-16T03:47:57.383Z,96449.50
2018-03-16T03:48:29.010Z,96451.55
2018-03-16T03:49:00.634Z,96453.30
2018-03-16T03:49:32.364Z,96450.78
2018-03-16T03:50:04.037Z,96451.70
2018-03-16T03:50:35.671Z,96453.89
2018-03-16T03:51:07.297Z,96446.05
2018-03-16T03:51:38.922Z,96456.41
2018-03-16T03:52:10.569Z,96452.71
2018-03-16T03:52:42.238Z,96453.70
2018-03-16T03:53:13.861Z,96450.50
2018-03-16T03:53:45.486Z,96448.67
2018-03-16T03:54:17.124Z,96455.44
2018-03-16T03:54:48.774Z,96451.66
2018-03-16T03:55:20.403Z,96445.73
2018-03-16T03:55:52.030Z,96448.21
2018-03-16T03:56:23.658Z,96451.55
2018-03-16T03:56:55.285Z,96445.61
2018-03-16T03:57:26.909Z,96442.88
2018-03-16T03:57:58.538Z,96451.20
2018-03-16T03:58:30.169Z,96448.70
2018-03-16T03:59:01.794Z,96447.71
2018-03-16T03:59:33.426Z,96449.92
2018-03-16T04:00:05.050Z,96447.00
2018-03-16T04:00:36.673Z,96442.92
2018-03-16T04:01:08.303Z,96447.60
2018-03-16T04:01:39.982Z,96447.16
2018-03-16T04:02:11.613Z,96451.03
2018-03-16T04:02:43.242Z,96453.12
2018-03-16T04:03:14.867Z,96452.33
2018-03-16T04:03:46.494Z,96448.51
2018-03-16T04:04:18.121Z,96448.56
2018-03-16T04:04:49.750Z,96444.42
2018-03-16T04:05:21.375Z,96447.83
2018-03-16T04:05:53.004Z,96444.78
2018-03-16T04:06:24.629Z,96452.98
2018-03-16T04:06:56.293Z,96444.58
2018-03-16T04:07:27.924Z,96446.29
2018-03-16T04:07:59.545Z,96447.54
2018-03-16T04:08:31.176Z,96446.66
2018-03-16T04:09:02.823Z,96451.36
2018-03-16T04:09:34.455Z,96446.24
2018-03-16T04:10:06.086Z,96451.47
2018-03-16T04:10:37.710Z,96450.16
2018-03-16T04:11:09.333Z,96448.94
2018-03-16T04:11:40.961Z,96453.62
2018-03-16T04:12:12.582Z,96453.16
2018-03-16T04:12:44.205Z,96437.05
2018-03-16T04:13:15.826Z,96448.94
2018-03-16T04:13:47.445Z,96453.62
2018-03-16T04:14:19.070Z,96451.06
2018-03-16T04:14:50.756Z,96449.04
2018-03-16T04:15:22.350Z,96451.98
2018-03-16T04:15:53.986Z,96452.77
2018-03-16T04:16:25.654Z,96448.16
2018-03-16T04:16:57.491Z,96449.04
2018-03-16T04:17:29.114Z,96452.45
2018-03-16T04:18:00.738Z,96449.81
2018-03-16T04:18:32.362Z,96452.00
2018-03-16T04:19:03.990Z,96452.84
2018-03-16T04:19:35.650Z,96457.94
2018-03-16T04:20:07.337Z,96451.59
2018-03-16T04:20:38.962Z,96454.21
2018-03-16T04:21:10.589Z,96456.58
2018-03-16T04:21:42.219Z,96455.80
2018-03-16T04:22:13.869Z,96451.09
2018-03-16T04:22:45.506Z,96455.39
2018-03-16T04:23:17.130Z,96455.48
2018-03-16T04:23:48.753Z,96457.13
2018-03-16T04:24:20.382Z,96454.06
2018-03-16T04:24:52.011Z,96452.32
2018-03-16T04:25:23.682Z,96455.75
2018-03-16T04:25:55.318Z,96455.28
2018-03-16T04:26:26.969Z,96447.62
2018-03-16T04:26:58.599Z,96451.83
2018-03-16T04:27:30.229Z,96452.71
2018-03-16T04:28:01.862Z,96463.77
2018-03-16T04:28:33.525Z,96452.30
2018-03-16T04:29:05.158Z,96449.25
2018-03-16T04:29:36.791Z,96453.03
2018-03-16T04:30:08.458Z,96454.45
2018-03-16T04:30:40.091Z,96456.04
2018-03-16T04:31:11.718Z,96455.16
2018-03-16T04:31:43.347Z,96453.83
2018-03-16T04:32:14.974Z,96452.92
2018-03-16T04:32:46.598Z,96448.59
2018-03-16T04:33:18.226Z,96451.87
2018-03-16T04:33:49.854Z,96451.03
2018-03-16T04:34:21.483Z,96453.55
2018-03-16T04:34:53.106Z,96456.56
2018-03-16T04:35:24.770Z,96453.16
2018-03-16T04:35:56.397Z,96453.16
2018-03-16T04:36:28.022Z,96456.94
2018-03-16T04:36:59.681Z,96453.98
2018-03-16T04:37:31.303Z,96456.03
2018-03-16T04:38:02.928Z,96450.83
2018-03-16T04:38:34.555Z,96456.81
2018-03-16T04:39:06.178Z,96457.55
2018-03-16T04:39:37.806Z,96455.05
2018-03-16T04:40:09.430Z,96457.48
2018-03-16T04:40:41.099Z,96455.85
2018-03-16T04:41:12.726Z,96455.88
2018-03-16T04:41:44.353Z,96452.08
2018-03-16T04:42:15.978Z,96452.81
2018-03-16T04:42:47.607Z,96458.84
2018-03-16T04:43:19.234Z,96455.80
2018-03-16T04:43:50.858Z,96454.50
2018-03-16T04:44:22.498Z,96452.29
2018-03-16T04:44:54.166Z,96459.78
2018-03-16T04:45:25.799Z,96456.92
2018-03-16T04:45:57.422Z,96454.34
2018-03-16T04:46:29.047Z,96459.03
2018-03-16T04:47:00.714Z,96450.22
2018-03-16T04:47:32.338Z,96459.16
2018-03-16T04:48:03.961Z,96454.89
2018-03-16T04:48:35.582Z,96454.50
2018-03-16T04:49:07.202Z,96449.69
2018-03-16T04:49:38.831Z,96454.38
2018-03-16T04:50:10.457Z,96449.25
2018-03-16T04:50:42.087Z,96448.75
2018-03-16T04:51:13.711Z,96456.09
2018-03-16T04:51:45.347Z,96451.91
2018-03-16T04:52:16.970Z,96448.78
2018-03-16T04:52:48.599Z,96453.20
2018-03-16T04:53:20.338Z,96451.48
2018-03-16T04:53:52.003Z,96453.54
2018-03-16T04:54:23.630Z,96447.71
2018-03-16T04:54:55.262Z,96448.11
2018-03-16T04:55:26.890Z,96445.60
2018-03-16T04:55:58.522Z,96446.56
2018-03-16T04:56:30.148Z,96445.27
2018-03-16T04:57:01.774Z,96444.98
2018-03-16T04:57:33.450Z,96441.05
2018-03-16T04:58:05.086Z,96436.45
2018-03-16T04:58:36.709Z,96445.73
2018-03-16T04:59:08.338Z,96442.33
2018-03-16T04:59:39.966Z,96443.59
2018-03-16T05:00:11.594Z,96445.03
2018-03-16T05:00:43.222Z,96443.80
2018-03-16T05:01:14.846Z,96440.81
2018-03-16T05:01:46.507Z,96437.44
2018-03-16T05:02:18.278Z,96443.47
2018-03-16T05:02:49.904Z,96437.20
2018-03-16T05:03:21.529Z,96439.77
2018-03-16T05:03:53.159Z,96436.83
2018-03-16T05:04:24.786Z,96439.35
2018-03-16T05:04:56.410Z,96437.22
2018-03-16T05:05:28.039Z,96441.02
2018-03-16T05:05:59.662Z,96438.16
2018-03-16T05:06:31.330Z,96434.80
2018-03-16T05:07:02.963Z,96438.65
2018-03-16T05:07:34.643Z,96440.86
2018-03-16T05:08:06.323Z,96438.35
2018-03-16T05:08:38.530Z,96444.28
2018-03-16T05:09:10.163Z,96439.37
2018-03-16T05:09:41.798Z,96436.84
2018-03-16T05:10:13.427Z,96446.74
2018-03-16T05:10:45.157Z,96446.62
2018-03-16T05:11:16.794Z,96444.47
2018-03-16T05:11:48.459Z,96445.88
2018-03-16T05:12:20.099Z,96440.87
2018-03-16T05:12:51.726Z,96444.31
2018-03-16T05:13:23.356Z,96442.41
2018-03-16T05:13:54.990Z,96444.41
2018-03-16T05:14:26.619Z,96439.94
2018-03-16T05:14:58.255Z,96435.36
2018-03-16T05:15:29.886Z,96446.84
2018-03-16T05:16:01.510Z,96440.60
2018-03-16T05:16:33.139Z,96439.77
2018-03-16T05:17:04.763Z,96437.72
2018-03-16T05:17:36.386Z,96435.22
2018-03-16T05:18:08.015Z,96450.52
2018-03-16T05:18:39.638Z,96436.52
2018-03-16T05:19:11.262Z,96432.79
2018-03-16T05:19:42.890Z,96432.77
2018-03-16T05:20:14.522Z,96435.75
2018-03-16T05:20:46.189Z,96430.32
2018-03-16T05:21:17.818Z,96432.03
2018-03-16T05:21:49.442Z,96431.22
2018-03-16T05:22:21.071Z,96423.56
2018-03-16T05:22:52.695Z,96429.95
2018-03-16T05:23:24.370Z,96429.48
2018-03-16T05:23:55.993Z,96417.31
2018-03-16T05:24:27.622Z,96421.45
2018-03-16T05:24:59.245Z,96423.98
2018-03-16T05:25:30.875Z,96424.83
2018-03-16T05:26:02.510Z,96418.76
2018-03-16T05:26:34.139Z,96422.12
2018-03-16T05:27:05.810Z,96423.41
2018-03-16T05:27:37.438Z,96422.06
2018-03-16T05:28:09.063Z,96421.75
2018-03-16T05:28:40.690Z,96421.31
2018-03-16T05:29:12.319Z,96419.16
2018-03-16T05:29:43.941Z,96421.23
2018-03-16T05:30:15.562Z,96418.69
2018-03-16T05:30:47.241Z,96419.94
2018-03-16T05:31:18.870Z,96426.64
2018-03-16T05:31:50.499Z,96418.66
2018-03-16T05:32:22.126Z,96421.94
2018-03-16T05:32:53.750Z,96419.78
2018-03-16T05:33:25.384Z,96417.69
2018-03-16T05:33:57.006Z,96422.28
2018-03-16T05:34:28.630Z,96422.34
2018-03-16T05:35:00.258Z,96423.11
2018-03-16T05:35:31.882Z,96427.30
2018-03-16T05:36:03.546Z,96423.33
2018-03-16T05:36:35.173Z,96421.16
2018-03-16T05:37:06.806Z,96425.83
2018-03-16T05:37:38.441Z,96423.72
2018-03-16T05:38:10.062Z,96420.24
2018-03-16T05:38:41.720Z,96420.63
2018-03-16T05:39:13.346Z,96417.88
2018-03-16T05:39:44.968Z,96427.47
2018-03-16T05:40:16.594Z,96423.05
2018-03-16T05:40:48.222Z,96416.52
2018-03-16T05:41:19.885Z,96416.84
2018-03-16T05:41:51.511Z,96417.77
2018-03-16T05:42:23.134Z,96416.76
2018-03-16T05:42:54.760Z,96416.31
2018-03-16T05:43:26.381Z,96420.84
2018-03-16T05:43:58.010Z,96409.41
2018-03-16T05:44:29.638Z,96415.23
2018-03-16T05:45:01.263Z,96416.69
2018-03-16T05:45:32.889Z,96416.25
2018-03-16T05:46:04.558Z,96413.25
2018-03-16T05:46:36.186Z,96420.27
2018-03-16T05:47:07.819Z,96415.62
2018-03-16T05:47:39.447Z,96412.63
2018-03-16T05:48:11.070Z,96407.87
2018-03-16T05:48:42.693Z,96414.30
2018-03-16T05:49:14.325Z,96409.41
2018-03-16T05:49:45.950Z,96411.93
2018-03-16T05:50:17.623Z,96411.52
2018-03-16T05:50:49.246Z,96409.22
2018-03-16T05:51:20.911Z,96410.16
2018-03-16T05:51:52.534Z,96405.87
2018-03-16T05:52:24.157Z,96415.55
2018-03-16T05:52:55.778Z,96417.70
2018-03-16T05:53:27.406Z,96411.30
2018-03-16T05:53:59.034Z,96404.92
2018-03-16T05:54:30.718Z,96413.93
2018-03-16T05:55:02.351Z,96409.03
2018-03-16T05:55:34.022Z,96414.08
2018-03-16T05:56:05.658Z,96405.92
2018-03-16T05:56:37.285Z,96414.97
2018-03-16T05:57:08.914Z,96415.44
2018-03-16T05:57:40.537Z,96413.77
2018-03-16T05:58:12.166Z,96412.42
2018-03-16T05:58:43.834Z,96425.16
2018-03-16T05:59:15.458Z,96417.33
2018-03-16T05:59:47.086Z,96419.10
2018-03-16T06:00:18.770Z,96421.58
2018-03-16T06:00:50.452Z,96419.52
2018-03-16T06:01:22.059Z,96423.08
2018-03-16T06:01:53.690Z,96420.98
2018-03-16T06:02:25.313Z,96422.23
2018-03-16T06:02:56.938Z,96418.37
2018-03-16T06:03:28.567Z,96418.42
2018-03-16T06:04:00.198Z,96421.41
2018-03-16T06:04:31.921Z,96421.34
2018-03-16T06:05:03.554Z,96421.23
2018-03-16T06:05:35.230Z,96419.96
2018-03-16T06:06:06.854Z,96422.02
2018-03-16T06:06:38.482Z,96425.09
2018-03-16T06:07:10.110Z,96414.55
2018-03-16T06:07:41.748Z,96423.16
2018-03-16T06:08:13.374Z,96418.95
2018-03-16T06:08:44.998Z,96421.11
2018-03-16T06:09:16.622Z,96424.98
2018-03-16T06:09:48.246Z,96426.73
2018-03-16T06:10:19.869Z,96424.13
2018-03-16T06:10:51.571Z,96419.41
2018-03-16T06:11:23.198Z,96419.60